DW5635 Weather Reports


Display with metric or nautical units.
time (UTC)temp
F
wind
direction
speed
MPH
gust
MPH
rain 1hr
in
rain 24hr
in
rain mn
in
humidity
%
barometer
mb
20221204210510 46 112 1.0 1.0 0.00 0.00 0.00 41 1022.3
20221204210009 46 129 1.0 1.0 0.00 0.00 0.00 40 1022.7
20221204205509 46 133 2.0 2.0 0.00 0.00 0.00 40 1022.4
20221204205008 46 150 3.0 3.0 0.00 0.00 0.00 40 1022.3
20221204204506 46 132 2.0 2.0 0.00 0.00 0.00 41 1022.4
20221204204005 46 122 0.0 1.0 0.00 0.00 0.00 41 1022.6
20221204203503 46 150 2.0 2.0 0.00 0.00 0.00 40 1022.8
20221204203002 46 135 1.0 1.0 0.00 0.00 0.00 39 1022.8
20221204202500 47 148 2.0 3.0 0.00 0.00 0.00 39 1022.7
20221204201958 47 162 3.0 3.0 0.00 0.00 0.00 38 1022.9
20221204201458 47 145 1.0 1.0 0.00 0.00 0.00 37 1023.0
20221204200957 47 74 1.0 1.0 0.00 0.00 0.00 37 1023.1
20221204200456 47 42 3.0 3.0 0.00 0.00 0.00 38 1023.1
20221204195955 47 113 1.0 1.0 0.00 0.00 0.00 38 1023.2
20221204195455 47 163 2.0 3.0 0.00 0.00 0.00 37 1023.1
20221204194955 47 160 2.0 2.0 0.00 0.00 0.00 38 1023.1
20221204194454 47 117 0.0 1.0 0.00 0.00 0.00 38 1023.1
20221204193952 48 138 3.0 3.0 0.00 0.00 0.00 38 1023.0
20221204193452 47 142 0.0 1.0 0.00 0.00 0.00 38 1023.1
20221204192951 47 156 3.0 3.0 0.00 0.00 0.00 37 1023.2
20221204192450 47 112 1.0 1.0 0.00 0.00 0.00 38 1023.0
20221204191949 47 103 0.0 1.0 0.00 0.00 0.00 39 1023.2
20221204191448 48 76 1.0 1.0 0.00 0.00 0.00 38 1022.9
20221204190947 48 99 0.0 1.0 0.00 0.00 0.00 38 1023.0
20221204190447 47 127 1.0 1.0 0.00 0.00 0.00 37 1023.0
20221204185946 46 117 1.0 2.0 0.00 0.00 0.00 38 1023.0
20221204185445 46 24 2.0 2.0 0.00 0.00 0.00 38 1023.1
20221204184944 46 58 1.0 2.0 0.00 0.00 0.00 37 1023.2
20221204184443 47 95 1.0 1.0 0.00 0.00 0.00 37 1023.0
20221204183942 47 95 1.0 1.0 0.00 0.00 0.00 37 1023.3
20221204183440 47 322 2.0 2.0 0.00 0.00 0.00 38 1023.3
20221204182939 48 342 3.0 3.0 0.00 0.00 0.00 38 1023.0
20221204182438 48 80 1.0 1.0 0.00 0.00 0.00 36 1023.0
20221204181937 48 96 1.0 2.0 0.00 0.00 0.00 36 1023.2
20221204181436 48 91 0.0 1.0 0.00 0.00 0.00 37 1023.3
20221204180936 48 51 2.0 2.0 0.00 0.00 0.00 38 1023.1
20221204180436 48 37 4.0 5.0 0.00 0.00 0.00 37 1023.2
20221204175936 47 93 0.0 0.0 0.00 0.00 0.00 37 1023.4
20221204175435 47 93 1.0 1.0 0.00 0.00 0.00 36 1023.3
20221204174935 47 100 0.0 1.0 0.00 0.00 0.00 39 1023.4
20221204174435 47 83 2.0 2.0 0.00 0.00 0.00 37 1023.4
20221204173935 46 132 0.0 0.0 0.00 0.00 0.00 38 1023.4
20221204173433 47 309 1.0 1.0 0.00 0.00 0.00 38 1023.7
20221204172931 47 230 4.0 5.0 0.00 0.00 0.00 37 1023.6
20221204172431 46 78 2.0 2.0 0.00 0.00 0.00 37 1023.6
20221204171929 46 330 1.0 2.0 0.00 0.00 0.00 36 1023.7
20221204171429 46 279 1.0 2.0 0.00 0.00 0.00 38 1023.9
20221204170927 45 94 0.0 1.0 0.00 0.00 0.00 44 1023.8
20221204170427 45 114 1.0 1.0 0.00 0.00 0.00 45 1023.8
20221204165926 45 80 1.0 1.0 0.00 0.00 0.00 45 1024.2
20221204165425 44 107 1.0 1.0 0.00 0.00 0.00 46 1024.2
20221204164924 44 78 1.0 1.0 0.00 0.00 0.00 47 1024.3
20221204164424 44 54 1.0 2.0 0.00 0.00 0.00 47 1024.5
20221204163922 44 73 3.0 5.0 0.00 0.00 0.00 46 1024.3
20221204163422 44 70 1.0 2.0 0.00 0.00 0.00 48 1024.5
20221204162922 44 74 1.0 2.0 0.00 0.00 0.00 49 1024.3
20221204162420 44 88 2.0 3.0 0.00 0.00 0.00 47 1024.4
20221204161920 44 36 2.0 3.0 0.00 0.00 0.00 48 1024.4
20221204161419 44 74 1.0 1.0 0.00 0.00 0.00 47 1024.6
20221204160918 43 85 0.0 0.0 0.00 0.00 0.00 49 1024.5
20221204160418 43 13 3.0 3.0 0.00 0.00 0.00 47 1024.7
20221204155915 43 111 2.0 3.0 0.00 0.00 0.00 46 1024.7
20221204155415 43 31 1.0 2.0 0.00 0.00 0.00 49 1025.0
20221204154915 43 344 3.0 3.0 0.00 0.00 0.00 51 1025.2
20221204154413 43 53 2.0 2.0 0.00 0.00 0.00 50 1025.2
20221204153911 42 82 2.0 2.0 0.00 0.00 0.00 52 1025.2
20221204153411 41 359 2.0 2.0 0.00 0.00 0.00 52 1025.5
20221204152911 41 74 1.0 1.0 0.00 0.00 0.00 53 1025.6
20221204152410 41 58 2.0 3.0 0.00 0.00 0.00 54 1025.6
20221204151910 41 46 3.0 3.0 0.00 0.00 0.00 52 1025.6
20221204151408 41 355 3.0 3.0 0.00 0.00 0.00 50 1025.7
20221204150907 41 49 2.0 2.0 0.00 0.00 0.00 50 1025.6
20221204150407 41 42 2.0 2.0 0.00 0.00 0.00 54 1025.4
20221204145905 41 11 3.0 3.0 0.00 0.00 0.00 51 1025.7
20221204145404 42 42 1.0 2.0 0.00 0.00 0.00 51 1025.4
20221204144902 41 70 1.0 2.0 0.00 0.00 0.00 51 1025.5
20221204144402 41 12 3.0 3.0 0.00 0.00 0.00 50 1025.6
20221204143901 41 337 3.0 3.0 0.00 0.00 0.00 51 1025.4
20221204143400 41 1 4.0 5.0 0.00 0.00 0.00 52 1025.3
20221204142900 40 29 2.0 2.0 0.00 0.00 0.00 53 1025.5
20221204142359 40 349 4.0 6.0 0.00 0.00 0.00 52 1025.4
20221204141858 40 38 2.0 2.0 0.00 0.00 0.00 55 1025.3
20221204141357 39 72 2.0 2.0 0.00 0.00 0.00 54 1025.5
20221204140856 39 337 3.0 5.0 0.00 0.00 0.00 56 1025.6
20221204140356 39 339 2.0 3.0 0.00 0.00 0.00 54 1025.5
20221204135854 39 5 3.0 3.0 0.00 0.00 0.00 55 1025.5
20221204135354 39 53 2.0 2.0 0.00 0.00 0.00 57 1025.3
20221204134854 38 53 1.0 2.0 0.00 0.00 0.00 57 1025.3
20221204134352 37 96 2.0 2.0 0.00 0.00 0.00 59 1025.7
20221204133850 37 76 0.0 0.0 0.00 0.00 0.00 60 1025.6
20221204133350 37 71 1.0 1.0 0.00 0.00 0.00 61 1025.4
20221204132851 37 6 3.0 3.0 0.00 0.00 0.00 61 1025.4
20221204132350 36 3 3.0 3.0 0.00 0.00 0.00 62 1025.5
20221204131849 36 51 1.0 1.0 0.00 0.00 0.00 63 1025.4
20221204131348 36 59 1.0 2.0 0.00 0.00 0.00 64 1025.5
20221204130848 35 52 1.0 1.0 0.00 0.00 0.00 64 1025.8
20221204130347 35 69 0.0 1.0 0.00 0.00 0.00 64 1025.5
20221204125847 35 12 2.0 2.0 0.00 0.00 0.00 65 1025.2
20221204125346 34 70 1.0 1.0 0.00 0.00 0.00 68 1025.4
20221204124846 34 73 1.0 1.0 0.00 0.00 0.00 70 1025.4
20221204124345 35 73 0.0 0.0 0.00 0.00 0.00 67 1025.6
20221204123845 35 71 0.0 0.0 0.00 0.00 0.00 65 1025.5
20221204123344 34 49 1.0 1.0 0.00 0.00 0.00 66 1025.3
20221204122843 33 60 1.0 1.0 0.00 0.00 0.00 70 1025.3
20221204122343 32 21 2.0 2.0 0.00 0.00 0.00 71 1025.6
20221204121841 32 73 0.0 0.0 0.00 0.00 0.00 73 1025.7
20221204121339 33 86 1.0 1.0 0.00 0.00 0.00 72 1025.7
20221204120838 33 86 0.0 0.0 0.00 0.00 0.00 71 1025.4
20221204120337 34 85 0.0 1.0 0.00 0.00 0.00 68 1025.2
20221204115836 35 111 0.0 0.0 0.00 0.00 0.00 68 1025.2
20221204115335 35 96 0.0 1.0 0.00 0.00 0.00 66 1025.1
20221204114835 36 89 0.0 0.0 0.00 0.00 0.00 63 1025.2
20221204114334 36 49 1.0 2.0 0.00 0.00 0.00 63 1024.8
20221204113834 36 50 1.0 2.0 0.00 0.00 0.00 63 1024.9
20221204113334 36 39 3.0 3.0 0.00 0.00 0.00 63 1025.0
20221204112834 36 17 2.0 3.0 0.00 0.00 0.00 62 1025.2
20221204112333 36 69 1.0 1.0 0.00 0.00 0.00 63 1025.2
20221204111833 36 45 1.0 2.0 0.00 0.00 0.00 64 1025.0
20221204111332 35 358 3.0 3.0 0.00 0.00 0.00 67 1024.9
20221204110832 35 21 2.0 2.0 0.00 0.00 0.00 68 1024.8
20221204110330 35 29 1.0 1.0 0.00 0.00 0.00 68 1024.9
20221204105828 36 47 1.0 2.0 0.00 0.00 0.00 69 1024.6
20221204105328 36 84 1.0 2.0 0.00 0.00 0.00 68 1024.6
20221204104826 36 47 1.0 2.0 0.00 0.00 0.00 68 1024.3
20221204104326 37 59 3.0 3.0 0.00 0.00 0.00 67 1024.3
20221204103824 37 6 2.0 2.0 0.00 0.00 0.00 68 1024.2
20221204103322 37 0 4.0 6.0 0.00 0.00 0.00 68 1024.2
20221204102822 37 43 3.0 3.0 0.00 0.00 0.00 68 1024.2
20221204102320 37 45 2.0 2.0 0.00 0.00 0.00 67 1024.3
20221204101820 37 54 2.0 2.0 0.00 0.00 0.00 67 1024.2
20221204101320 37 42 1.0 1.0 0.00 0.00 0.00 66 1024.4
20221204100820 37 56 1.0 1.0 0.00 0.00 0.00 66 1024.4
20221204100320 38 55 1.0 2.0 0.00 0.00 0.00 66 1024.4
20221204095818 38 41 2.0 3.0 0.00 0.00 0.00 66 1024.1
20221204095316 38 359 3.0 3.0 0.00 0.00 0.00 66 1023.9
20221204094815 38 56 4.0 6.0 0.00 0.00 0.00 66 1024.0
20221204094314 38 0 4.0 5.0 0.00 0.00 0.00 67 1024.1
20221204093813 38 25 5.0 7.0 0.00 0.00 0.00 67 1024.3
20221204093311 38 349 4.0 5.0 0.00 0.00 0.00 68 1024.3
20221204092811 37 0 3.0 3.0 0.00 0.00 0.00 68 1024.1
20221204092310 37 346 3.0 5.0 0.00 0.00 0.00 68 1024.3
20221204091809 37 9 4.0 5.0 0.00 0.00 0.00 69 1024.6
20221204091309 38 68 0.0 1.0 0.00 0.00 0.00 68 1024.6
20221204090807 38 48 2.0 2.0 0.00 0.00 0.00 67 1024.5
20221204090306 38 8 3.0 3.0 0.00 0.00 0.00 67 1024.5
20221204085805 38 28 2.0 2.0 0.00 0.00 0.00 67 1024.3
20221204085305 39 79 2.0 3.0 0.00 0.00 0.00 66 1024.6
20221204084803 39 10 3.0 3.0 0.00 0.00 0.00 66 1024.6
20221204084300 38 352 3.0 3.0 0.00 0.00 0.00 66 1024.6
20221204083800 39 8 2.0 2.0 0.00 0.00 0.00 66 1024.4
20221204083300 39 15 2.0 2.0 0.00 0.00 0.00 66 1024.7
20221204082757 39 45 1.0 2.0 0.00 0.00 0.00 66 1024.7
20221204082257 39 23 3.0 3.0 0.00 0.00 0.00 66 1024.6
20221204081755 39 49 1.0 2.0 0.00 0.00 0.00 65 1024.6
20221204081254 39 43 2.0 2.0 0.00 0.00 0.00 65 1024.9
20221204080750 39 54 2.0 2.0 0.00 0.00 0.00 65 1025.0
20221204080250 40 61 1.0 2.0 0.00 0.00 0.00 64 1025.1
20221204075749 40 33 2.0 2.0 0.00 0.00 0.00 64 1024.9
20221204075247 40 8 4.0 5.0 0.00 0.00 0.00 63 1024.9
20221204074745 40 71 2.0 3.0 0.00 0.00 0.00 63 1024.8
20221204074246 40 340 3.0 3.0 0.00 0.00 0.00 63 1024.9
20221204073744 40 351 2.0 2.0 0.00 0.00 0.00 62 1025.0
20221204073244 40 66 1.0 1.0 0.00 0.00 0.00 62 1025.1
20221204072740 40 57 1.0 1.0 0.00 0.00 0.00 63 1025.0
20221204072238 40 60 1.0 1.0 0.00 0.00 0.00 62 1024.9
20221204071738 41 30 2.0 2.0 0.00 0.00 0.00 61 1024.8
20221204071238 41 29 2.0 2.0 0.00 0.00 0.00 61 1024.6
20221204070736 41 3 1.0 1.0 0.00 0.00 0.00 61 1024.6
20221204070236 41 1 2.0 2.0 0.00 0.00 0.00 61 1024.4
20221204065735 41 338 3.0 3.0 0.00 0.00 0.00 61 1024.4
20221204065235 41 353 2.0 2.0 0.00 0.00 0.00 61 1024.3
20221204064733 40 348 2.0 2.0 0.00 0.00 0.00 61 1024.4
20221204064231 40 42 1.0 2.0 0.00 0.00 0.00 63 1024.3
20221204063730 40 54 2.0 2.0 0.00 0.00 0.00 61 1024.1
20221204063229 41 30 1.0 1.0 0.00 0.00 0.00 60 1023.9
20221204062727 41 352 1.0 2.0 0.00 0.00 0.00 58 1023.9
20221204062225 41 339 2.0 2.0 0.00 0.00 0.00 59 1024.0
20221204061724 40 50 1.0 2.0 0.00 0.00 0.00 60 1024.0
20221204061222 40 52 0.0 1.0 0.00 0.00 0.00 61 1024.1
20221204060721 40 52 1.0 1.0 0.00 0.00 0.00 63 1024.2
20221204060219 40 52 0.0 1.0 0.00 0.00 0.00 63 1024.1
20221204055718 41 52 0.0 1.0 0.00 0.00 0.00 60 1023.9
20221204055216 41 51 1.0 1.0 0.00 0.00 0.00 58 1024.1
20221204054716 41 57 1.0 1.0 0.00 0.00 0.00 61 1024.0
20221204054215 41 58 1.0 1.0 0.00 0.00 0.00 58 1023.8
20221204053714 42 57 1.0 1.0 0.00 0.00 0.00 59 1023.9
20221204053213 43 74 0.0 1.0 0.00 0.00 0.00 56 1024.2
20221204052711 43 73 0.0 0.0 0.00 0.00 0.00 55 1024.0
20221204052211 44 74 0.0 1.0 0.00 0.00 0.00 54 1024.0
20221204051710 44 59 1.0 1.0 0.00 0.00 0.00 52 1024.2
20221204051209 45 25 2.0 2.0 0.00 0.00 0.00 51 1024.2
20221204050709 45 359 2.0 2.0 0.00 0.00 0.00 51 1024.1
20221204050208 45 15 2.0 3.0 0.00 0.00 0.00 50 1023.9
20221204045708 44 9 2.0 3.0 0.00 0.28 0.28 51 1024.2
20221204045206 45 56 1.0 2.0 0.00 0.28 0.28 51 1024.1
20221204044705 45 54 1.0 1.0 0.00 0.28 0.28 51 1024.1
20221204044204 46 356 2.0 2.0 0.00 0.28 0.28 49 1024.1
20221204043704 46 13 2.0 2.0 0.00 0.28 0.28 48 1024.5
20221204043204 46 334 3.0 3.0 0.00 0.28 0.28 48 1024.3
20221204042704 47 321 4.0 5.0 0.00 0.28 0.28 48 1024.4
20221204042204 47 355 4.0 5.0 0.00 0.28 0.28 47 1024.4
20221204041702 47 359 4.0 5.0 0.00 0.28 0.28 46 1024.1
20221204041200 47 339 6.0 7.0 0.00 0.28 0.28 47 1024.1
20221204040700 47 339 6.0 7.0 0.00 0.28 0.28 47 1024.5
20221204040159 48 344 3.0 3.0 0.00 0.28 0.28 47 1024.3
20221204035659 48 7 2.0 2.0 0.00 0.28 0.28 47 1024.3
20221204035158 48 358 3.0 3.0 0.00 0.28 0.28 45 1024.3
20221204034657 48 17 2.0 2.0 0.00 0.28 0.28 44 1024.1
20221204034155 48 39 2.0 3.0 0.00 0.28 0.28 43 1024.0
20221204033655 48 356 2.0 3.0 0.00 0.28 0.28 43 1024.0
20221204033153 49 345 3.0 3.0 0.00 0.28 0.28 45 1023.9
20221204032653 49 343 2.0 3.0 0.00 0.28 0.28 44 1024.0
20221204032152 49 16 3.0 3.0 0.00 0.28 0.28 45 1023.9
20221204031651 49 6 5.0 7.0 0.00 0.28 0.28 45 1023.8
20221204031151 49 347 3.0 3.0 0.00 0.28 0.28 46 1023.7
20221204030650 49 333 3.0 3.0 0.00 0.28 0.28 46 1023.8
20221204030150 50 3 2.0 2.0 0.00 0.28 0.28 46 1023.7
20221204025648 50 39 3.0 5.0 0.00 0.28 0.28 46 1023.8
20221204025148 50 345 3.0 5.0 0.00 0.28 0.28 47 1023.7
20221204024648 50 316 4.0 5.0 0.00 0.28 0.28 47 1023.6
20221204024148 50 357 4.0 6.0 0.00 0.28 0.28 46 1023.4
20221204023646 51 344 5.0 6.0 0.00 0.28 0.28 45 1023.5
20221204023145 51 354 4.0 5.0 0.00 0.28 0.28 45 1023.4
20221204022643 51 353 4.0 5.0 0.00 0.28 0.28 45 1023.4
20221204022143 51 340 5.0 6.0 0.00 0.28 0.28 45 1023.2
20221204021642 51 355 4.0 5.0 0.00 0.28 0.28 46 1023.1
20221204021140 51 334 4.0 5.0 0.00 0.28 0.28 45 1023.1
20221204020640 51 330 3.0 3.0 0.00 0.28 0.28 45 1022.9
20221204020139 52 12 3.0 3.0 0.00 0.28 0.28 45 1022.8
20221204015639 52 5 3.0 5.0 0.00 0.28 0.28 45 1022.7
20221204015138 52 334 3.0 5.0 0.00 0.28 0.28 45 1022.3
20221204014637 53 4 3.0 5.0 0.00 0.28 0.28 43 1022.6
20221204014137 53 340 2.0 3.0 0.00 0.28 0.28 45 1022.4
20221204013637 54 335 3.0 3.0 0.00 0.28 0.28 42 1022.6
20221204013135 54 329 2.0 2.0 0.00 0.28 0.28 41 1022.2
20221204012635 54 351 3.0 3.0 0.00 0.28 0.28 41 1022.4
20221204012134 54 31 1.0 1.0 0.00 0.28 0.28 40 1022.6
20221204011634 55 21 1.0 1.0 0.00 0.28 0.28 40 1022.2
20221204011133 54 357 3.0 3.0 0.00 0.28 0.28 39 1022.4
20221204010633 54 27 2.0 2.0 0.00 0.28 0.28 43 1022.1
20221204010133 55 58 1.0 2.0 0.00 0.28 0.28 45 1022.0
20221204005631 55 85 1.0 2.0 0.00 0.28 0.28 47 1022.0
20221204005130 56 10 4.0 5.0 0.00 0.28 0.28 48 1021.8
20221204004628 56 6 4.0 5.0 0.00 0.28 0.28 49 1021.6
20221204004128 57 8 3.0 3.0 0.00 0.28 0.28 52 1021.0
20221204003628 57 336 3.0 3.0 0.00 0.28 0.28 54 1021.0
20221204003127 57 326 2.0 2.0 0.00 0.28 0.28 56 1020.6
20221204002625 58 329 1.0 2.0 0.00 0.28 0.28 56 1020.5
20221204002125 59 313 3.0 3.0 0.00 0.28 0.28 49 1020.5
20221204001625 59 318 3.0 3.0 0.00 0.28 0.28 48 1020.6
20221204001125 59 350 6.0 7.0 0.00 0.28 0.28 47 1020.5
20221204000624 59 313 3.0 5.0 0.00 0.28 0.28 51 1020.5
20221204000122 59 340 3.0 3.0 0.00 0.28 0.28 52 1020.4
20221203235620 59 306 4.0 5.0 0.00 0.28 0.28 59 1020.3
20221203235119 59 323 1.0 2.0 0.00 0.28 0.28 64 1020.2
20221203234618 59 297 2.0 3.0 0.00 0.28 0.28 67 1020.0
20221203234117 58 266 3.0 3.0 0.00 0.28 0.28 71 1019.8
20221203233615 56 55 2.0 2.0 0.00 0.28 0.28 86 1019.9
20221203233113 57 187 0.0 1.0 0.00 0.28 0.28 86 1019.8
20221203232613 58 140 0.0 0.0 0.00 0.28 0.28 84 1019.7
20221203232111 58 129 0.0 0.0 0.00 0.28 0.28 84 1019.6
20221203231609 58 144 0.0 0.0 0.00 0.28 0.28 84 1019.9
20221203231109 59 144 0.0 1.0 0.00 0.28 0.28 83 1019.7
20221203230609 59 144 1.0 1.0 0.00 0.28 0.28 83 1019.2
20221203230109 58 116 1.0 1.0 0.00 0.28 0.28 83 1019.4
20221203225608 58 61 1.0 1.0 0.00 0.28 0.28 83 1019.6
20221203225107 58 352 3.0 3.0 0.00 0.28 0.28 84 1019.5
20221203224607 57 358 3.0 3.0 0.00 0.28 0.28 85 1019.3
20221203224107 57 358 2.0 2.0 0.00 0.28 0.28 85 1019.2
20221203223606 57 70 2.0 2.0 0.00 0.28 0.28 85 1018.8
20221203223106 58 123 0.0 0.0 0.00 0.28 0.28 84 1018.5
20221203222604 58 150 1.0 1.0 0.00 0.28 0.28 84 1018.6
20221203222102 58 225 2.0 2.0 0.00 0.28 0.28 84 1018.4
20221203221601 58 157 1.0 1.0 0.00 0.28 0.28 83 1018.1
20221203221100 59 166 1.0 1.0 0.00 0.28 0.28 82 1017.9
20221203220558 59 162 2.0 2.0 0.00 0.28 0.28 82 1018.0
20221203220057 59 147 1.0 1.0 0.00 0.28 0.28 82 1018.1
20221203215555 59 149 2.0 2.0 0.00 0.28 0.28 82 1017.8
20221203215054 59 159 1.0 2.0 0.00 0.28 0.28 81 1018.0
20221203214554 59 145 1.0 1.0 0.00 0.28 0.28 81 1017.9
20221203214053 60 153 1.0 2.0 0.00 0.28 0.28 81 1017.9
20221203213553 60 140 1.0 1.0 0.00 0.28 0.28 80 1017.6
20221203213051 60 162 3.0 3.0 0.00 0.28 0.28 80 1017.8
20221203212549 60 149 1.0 1.0 0.00 0.28 0.28 80 1017.6
20221203212049 60 166 2.0 2.0 0.00 0.28 0.28 79 1017.6
20221203211546 60 177 2.0 3.0 0.00 0.28 0.28 80 1017.7
20221203211046 61 155 1.0 1.0 0.00 0.28 0.28 79 1017.4